Terminal Aerodrome Forecast
Issued by NWS

Home | Current Version | Previous Version | Text Only | Print | Product List | Glossary On
Versions: 1 2 3 4 5 6 7 8 9 10 11 12 13
000
FTUS43 KLSX 201124
TAFCPS
TAF
KCPS 201124Z 2012/2112 16006KT P6SM SCT060 BKN250 WS015/24040KT
     FM201500 24008KT P6SM BKN120
     FM202300 30007KT P6SM SCT150
     FM210100 36007KT P6SM BKN100
     FM210600 03009KT P6SM BKN025=

USA.gov is the U.S. government's official web portal to all federal, state and local government web resources and services.